Terminal Aerodrome Forecast
Issued by NWS Shreveport, LA

Home | Current Version | Previous Version | Text Only | Print | Product List | Glossary On
Versions: 1 2 3 4 5 6 7 8 9 10 11 12 13 14 15 16 17
000
FTUS44 KSHV 301100
TAFELD
TAF
KELD 301121Z 3012/3112 14005KT 6SM -SHRA BR SCT015 SCT050 OVC100
      TEMPO 3014/3018 2SM TSRA BR OVC015CB
     FM301800 14008KT 3SM -TSRA BR OVC015CB
      TEMPO 3018/3022 1SM +TSRA BR OVC008CB
     FM310000 15007KT P6SM VCTS OVC015CB
     FM310600 18006KT P6SM OVC008=

USA.gov is the U.S. government's official web portal to all federal, state and local government web resources and services.